Time;durP1;ratioP1;P1;durP2;ratioP2;P2;SDS_P1;SDS_P2;PMS_P1;PMS_P2;Temp;Humidity;BMP_temperature;BMP_pressure;BME280_temperature;BME280_humidity;BME280_pressure;Samples;Min_cycle;Max_cycle;Signal;HPM_P1;HPM_P2
2021/12/17 00:01:05;;;;;;;40.00;21.63;;;7.20;99.90;;;;;;5012096;28;20650;-53
2021/12/17 00:03:44;;;;;;;34.07;22.00;;;7.00;99.90;;;;;;5012148;28;20539;-58
2021/12/17 00:08:51;;;;;;;35.03;21.73;;;6.60;99.90;;;;;;5012172;28;20179;-51
2021/12/17 00:11:17;;;;;;;40.00;23.73;;;6.30;99.90;;;;;;5011853;28;20645;-51
2021/12/17 00:13:45;;;;;;;37.03;22.17;;;6.40;99.90;;;;;;5011835;28;20220;-49
2021/12/17 00:16:22;;;;;;;36.50;21.97;;;6.50;99.90;;;;;;5011715;28;20697;-49
2021/12/17 00:48:59;;;;;;;30.07;19.47;;;7.60;99.90;;;;;;5014931;28;20171;-53
2021/12/17 00:54:30;;;;;;;32.07;19.83;;;7.70;99.90;;;;;;5014460;28;20184;-53
2021/12/17 00:56:58;;;;;;;29.07;18.50;;;7.70;99.90;;;;;;5012801;28;20695;-52
2021/12/17 00:59:24;;;;;;;31.90;20.00;;;7.70;99.90;;;;;;5015194;28;20187;-52
2021/12/17 01:01:53;;;;;;;30.60;19.63;;;7.70;99.90;;;;;;5015052;28;20208;-53
2021/12/17 01:04:19;;;;;;;28.70;17.70;;;7.60;99.90;;;;;;4997668;28;20243;-52
2021/12/17 01:06:45;;;;;;;28.33;17.27;;;7.40;99.90;;;;;;5014982;28;20176;-50
2021/12/17 01:09:14;;;;;;;26.53;17.73;;;7.20;99.90;;;;;;5014991;28;20168;-51
2021/12/17 01:11:40;;;;;;;25.07;16.97;;;7.10;99.90;;;;;;5013369;28;20239;-54
2021/12/17 01:14:06;;;;;;;25.27;15.77;;;7.20;99.90;;;;;;5014671;28;20593;-52
2021/12/17 01:16:32;;;;;;;23.87;14.57;;;7.30;99.90;;;;;;5014773;28;20176;-49
2021/12/17 01:19:15;;;;;;;24.23;15.40;;;7.50;99.90;;;;;;5015128;28;20208;-52
2021/12/17 01:43:03;;;;;;;22.73;15.13;;;7.50;99.90;;;;;;5014771;28;20642;-52
2021/12/17 01:45:35;;;;;;;21.43;15.20;;;7.50;99.90;;;;;;5014305;28;20196;-52
2021/12/17 01:48:02;;;;;;;20.77;14.13;;;7.60;99.90;;;;;;5014473;28;20173;-56
2021/12/17 02:01:26;;;;;;;20.20;12.57;;;7.60;99.90;;;;;;5014108;28;20219;-53
2021/12/17 02:03:52;;;;;;;20.90;13.43;;;7.70;99.90;;;;;;5014244;28;20161;-55
2021/12/17 02:06:19;;;;;;;19.27;12.83;;;7.70;99.90;;;;;;5014328;28;20172;-57
2021/12/17 02:08:46;;;;;;;17.80;11.87;;;7.70;99.90;;;;;;5014214;28;20582;-49
2021/12/17 02:33:08;;;;;;;18.60;12.13;;;7.40;99.90;;;;;;4858755;29;20197;-52
2021/12/17 02:35:40;;;;;;;19.80;12.67;;;7.20;99.90;;;;;;4887897;29;20193;-54
2021/12/17 02:38:07;;;;;;;16.80;11.53;;;7.20;99.90;;;;;;4896073;29;20196;-50
2021/12/17 02:45:46;;;;;;;20.37;12.53;;;7.40;99.90;;;;;;4895659;29;20196;-56
2021/12/17 02:48:15;;;;;;;21.47;13.33;;;7.20;99.90;;;;;;4901620;29;20286;-51
2021/12/17 02:50:47;;;;;;;19.63;12.30;;;7.10;99.90;;;;;;5035464;22;20465;-55
2021/12/17 02:53:14;;;;;;;21.60;13.33;;;7.10;99.90;;;;;;5031420;28;20683;-51
2021/12/17 02:55:48;;;;;;;20.70;12.90;;;7.10;99.90;;;;;;5016782;28;20179;-54
2021/12/17 02:58:14;;;;;;;19.70;12.40;;;7.20;99.90;;;;;;5032796;28;20568;-48
2021/12/17 03:00:43;;;;;;;18.40;12.20;;;7.40;99.90;;;;;;5032436;28;20218;-52
2021/12/17 03:03:09;;;;;;;19.83;12.07;;;7.40;99.90;;;;;;5032820;28;20171;-48
2021/12/17 03:05:38;;;;;;;18.73;12.40;;;7.40;99.90;;;;;;5032440;28;20172;-53
2021/12/17 03:08:06;;;;;;;17.00;11.93;;;7.40;99.90;;;;;;5032613;28;20581;-54
2021/12/17 03:10:31;;;;;;;18.80;11.53;;;7.50;99.90;;;;;;5032013;28;20245;-54
2021/12/17 03:13:01;;;;;;;19.20;11.30;;;7.50;99.90;;;;;;5032626;28;20180;-51
2021/12/17 03:15:39;;;;;;;19.57;12.33;;;7.50;99.90;;;;;;5032228;28;20657;-49
2021/12/17 03:23:43;;;;;;;17.80;11.43;;;7.50;99.90;;;;;;5032817;28;20197;-52
2021/12/17 03:26:20;;;;;;;16.07;10.30;;;7.60;99.90;;;;;;5031986;28;20766;-53
2021/12/17 03:29:14;;;;;;;16.33;10.33;;;7.60;99.90;;;;;;5032404;28;20167;-51
2021/12/17 03:31:40;;;;;;;18.00;11.10;;;7.70;99.90;;;;;;5027807;28;20611;-55
2021/12/17 03:34:19;;;;;;;15.03;9.87;;;7.70;99.90;;;;;;5032238;28;20171;-48
2021/12/17 03:36:53;;;;;;;16.33;10.67;;;7.70;99.90;;;;;;5032130;28;20235;-54
2021/12/17 03:39:20;;;;;;;17.23;10.60;;;7.60;99.90;;;;;;5032249;28;20171;-51
2021/12/17 03:41:51;;;;;;;16.97;11.07;;;7.70;99.90;;;;;;5031946;28;20265;-54
2021/12/17 03:44:18;;;;;;;18.60;10.83;;;7.60;99.90;;;;;;5032262;28;20164;-54
2021/12/17 03:46:46;;;;;;;18.57;11.00;;;7.50;99.90;;;;;;5031879;28;20174;-53
2021/12/17 03:49:11;;;;;;;18.00;11.63;;;7.50;99.90;;;;;;5032103;28;20175;-54
2021/12/17 03:51:47;;;;;;;16.30;10.60;;;7.40;99.90;;;;;;5031883;28;20592;-55
2021/12/17 03:54:13;;;;;;;16.17;10.87;;;7.40;99.90;;;;;;5032090;28;20185;-53
2021/12/17 03:56:39;;;;;;;15.90;10.37;;;7.40;99.90;;;;;;5031770;28;20250;-54
2021/12/17 03:59:10;;;;;;;14.80;9.90;;;7.40;99.90;;;;;;5031923;28;20220;-49
2021/12/17 04:01:37;;;;;;;12.80;8.90;;;7.50;99.90;;;;;;5031940;28;20207;-49
2021/12/17 04:04:03;;;;;;;11.60;8.37;;;7.60;99.90;;;;;;5032008;28;20164;-51
2021/12/17 04:06:28;;;;;;;11.00;7.63;;;7.60;99.90;;;;;;5031599;28;20260;-50
2021/12/17 04:08:55;;;;;;;10.03;7.60;;;7.60;99.90;;;;;;5031759;28;20172;-53
2021/12/17 04:11:20;;;;;;;10.33;7.23;;;7.60;99.90;;;;;;5032033;28;20198;-53
2021/12/17 04:13:54;;;;;;;10.63;7.53;;;7.60;99.90;;;;;;5031782;28;20168;-52
2021/12/17 04:16:24;;;;;;;10.37;7.37;;;7.50;99.90;;;;;;5031483;28;20183;-55
2021/12/17 04:18:50;;;;;;;11.17;7.73;;;7.60;99.90;;;;;;5031850;28;20168;-52
2021/12/17 04:21:16;;;;;;;9.83;6.80;;;7.60;99.90;;;;;;5031481;28;20219;-53
2021/12/17 04:23:43;;;;;;;10.37;7.30;;;7.50;99.90;;;;;;5035594;28;20724;-54
2021/12/17 04:26:09;;;;;;;10.00;6.90;;;7.50;99.90;;;;;;5035493;28;20172;-53
2021/12/17 04:28:40;;;;;;;9.83;7.00;;;7.40;99.90;;;;;;5035870;28;20195;-53
2021/12/17 04:31:06;;;;;;;9.67;7.00;;;7.40;99.90;;;;;;5035650;28;20615;-51
2021/12/17 04:33:32;;;;;;;10.30;6.80;;;7.40;99.90;;;;;;5035722;28;20263;-53
2021/12/17 04:35:58;;;;;;;8.90;6.87;;;7.40;99.90;;;;;;5035544;28;20268;-49
2021/12/17 04:38:26;;;;;;;10.37;7.37;;;7.50;99.90;;;;;;5035580;28;20198;-52
2021/12/17 04:40:53;;;;;;;10.50;6.73;;;7.40;99.90;;;;;;5035325;28;20203;-56
2021/12/17 04:44:00;;;;;;;9.73;6.90;;;7.40;99.90;;;;;;5035521;28;20168;-51
2021/12/17 04:46:34;;;;;;;9.17;6.70;;;7.40;99.90;;;;;;5033128;28;20271;-54
2021/12/17 04:57:19;;;;;;;10.73;7.37;;;7.40;99.90;;;;;;5035275;28;20254;-54
2021/12/17 04:57:40;;;;;;;10.90;7.40;;;7.30;99.90;;;;;;5019419;28;20218;-54
2021/12/17 05:00:06;;;;;;;10.70;7.33;;;7.30;99.90;;;;;;5035206;28;20195;-53
2021/12/17 05:02:36;;;;;;;13.10;8.17;;;7.40;99.90;;;;;;5035014;28;20588;-54
2021/12/17 05:05:06;;;;;;;11.00;7.30;;;7.30;99.90;;;;;;5035011;28;20175;-53
2021/12/17 05:07:35;;;;;;;11.43;8.00;;;7.30;99.90;;;;;;5034865;28;20251;-50
2021/12/17 05:18:26;;;;;;;13.33;8.17;;;7.20;99.90;;;;;;4993133;28;20685;-53
2021/12/17 05:20:59;;;;;;;12.30;8.40;;;7.20;99.90;;;;;;4993011;28;20228;-51
2021/12/17 05:23:30;;;;;;;12.80;8.40;;;7.10;99.90;;;;;;4993040;28;20221;-54
2021/12/17 05:25:57;;;;;;;13.43;8.70;;;7.00;99.90;;;;;;4992750;28;20228;-53
2021/12/17 05:28:23;;;;;;;13.13;8.70;;;6.90;99.90;;;;;;4993072;28;20751;-50
2021/12/17 05:30:49;;;;;;;13.67;8.83;;;6.90;99.90;;;;;;4992625;28;20285;-49
2021/12/17 05:33:16;;;;;;;12.40;7.93;;;7.00;99.90;;;;;;4992841;28;20181;-51
2021/12/17 05:35:42;;;;;;;13.17;8.43;;;7.10;99.90;;;;;;4992635;28;20184;-53
2021/12/17 05:38:08;;;;;;;13.13;8.63;;;7.20;99.90;;;;;;4992889;28;20655;-53
2021/12/17 05:40:34;;;;;;;13.77;7.90;;;7.30;99.90;;;;;;4992682;28;20227;-54
2021/12/17 05:43:02;;;;;;;11.40;7.73;;;7.30;99.90;;;;;;4992662;28;20268;-52
2021/12/17 05:45:47;;;;;;;11.83;8.00;;;7.40;99.90;;;;;;4992207;28;20237;-50
2021/12/17 05:48:18;;;;;;;11.23;7.73;;;7.40;99.90;;;;;;4992547;28;20181;-53
2021/12/17 05:50:45;;;;;;;11.37;7.90;;;7.30;99.90;;;;;;5028298;28;20231;-53
2021/12/17 05:53:11;;;;;;;11.60;6.80;;;7.40;99.90;;;;;;5032601;28;20183;-50
2021/12/17 05:55:37;;;;;;;8.93;6.93;;;7.40;99.90;;;;;;5041340;28;20257;-52
2021/12/17 05:58:05;;;;;;;10.37;6.93;;;7.40;99.90;;;;;;5036115;28;20215;-50
2021/12/17 06:00:32;;;;;;;11.60;8.17;;;7.40;99.90;;;;;;5035799;28;20238;-51
2021/12/17 06:02:59;;;;;;;11.77;7.90;;;7.40;99.90;;;;;;5050491;28;20297;-54
2021/12/17 06:05:26;;;;;;;10.93;7.73;;;7.40;99.90;;;;;;5032409;28;20172;-50
2021/12/17 06:07:51;;;;;;;11.53;7.97;;;7.40;99.90;;;;;;5032662;28;20180;-51
2021/12/17 06:10:17;;;;;;;12.93;8.37;;;7.40;99.90;;;;;;5032642;28;20183;-54
2021/12/17 06:12:44;;;;;;;11.93;7.93;;;7.40;99.90;;;;;;5032222;28;20195;-51
2021/12/17 06:15:12;;;;;;;9.50;7.00;;;7.40;99.90;;;;;;5032155;28;20199;-54
2021/12/17 06:17:38;;;;;;;11.47;8.00;;;7.40;99.90;;;;;;5032702;28;20230;-50
2021/12/17 06:20:06;;;;;;;11.83;7.20;;;8.00;99.90;;;;;;5032353;28;20248;-53
2021/12/17 06:22:32;;;;;;;11.00;7.70;;;7.40;99.90;;;;;;5032207;28;20245;-53
2021/12/17 06:24:57;;;;;;;13.43;7.73;;;7.40;99.90;;;;;;5031952;28;20175;-50
2021/12/17 06:27:23;;;;;;;11.87;7.87;;;7.40;99.90;;;;;;5032475;28;20253;-54
2021/12/17 06:29:50;;;;;;;11.67;7.37;;;7.40;99.90;;;;;;5032236;28;20226;-52
2021/12/17 06:32:17;;;;;;;11.30;7.47;;;7.30;99.90;;;;;;5032164;28;20191;-48
2021/12/17 06:34:42;;;;;;;12.37;7.83;;;7.30;99.90;;;;;;5031885;28;20179;-53
2021/12/17 06:37:08;;;;;;;13.17;8.73;;;7.20;99.90;;;;;;5032369;28;20255;-52
2021/12/17 06:39:36;;;;;;;13.57;8.70;;;7.20;99.90;;;;;;5031987;28;20168;-52
2021/12/17 06:42:02;;;;;;;12.63;8.43;;;7.30;99.90;;;;;;5031843;28;20207;-53
2021/12/17 06:44:28;;;;;;;15.13;9.13;;;7.30;99.90;;;;;;5026793;28;20570;-52
2021/12/17 06:47:06;;;;;;;14.93;9.20;;;7.30;99.90;;;;;;5032320;28;20187;-56
2021/12/17 07:08:51;;;;;;;11.83;8.00;;;7.10;99.90;;;;;;5031746;28;20269;-53
2021/12/17 07:10:44;;;;;;;12.77;8.13;;;7.00;99.90;;;;;;5032495;28;20235;-55
2021/12/17 07:21:32;;;;;;;13.33;7.70;;;6.90;99.90;;;;;;5032390;28;20210;-55
2021/12/17 07:39:49;;;;;;;11.40;7.60;;;7.20;99.90;;;;;;5032225;28;20188;-52
2021/12/17 07:42:14;;;;;;;12.07;8.03;;;7.10;99.90;;;;;;5032055;28;20192;-54
2021/12/17 07:44:40;;;;;;;13.60;8.43;;;6.90;99.90;;;;;;5031893;28;20171;-50
2021/12/17 07:47:05;;;;;;;13.20;8.83;;;6.60;99.90;;;;;;5032085;28;20182;-50
2021/12/17 07:49:31;;;;;;;14.27;8.80;;;6.20;99.90;;;;;;5031902;28;20204;-51
2021/12/17 07:51:57;;;;;;;13.93;8.77;;;6.10;99.90;;;;;;5031457;28;20854;-50
2021/12/17 07:54:22;;;;;;;11.83;8.47;;;5.90;99.90;;;;;;5031977;28;20176;-49
2021/12/17 07:56:48;;;;;;;13.20;8.97;;;5.80;99.90;;;;;;5031701;28;20199;-51
2021/12/17 07:59:14;;;;;;;14.73;9.40;;;5.90;99.90;;;;;;5031785;28;20222;-48
2021/12/17 08:01:40;;;;;;;13.07;8.00;;;6.10;99.90;;;;;;5031575;28;20635;-49
2021/12/17 08:04:07;;;;;;;13.40;8.67;;;6.20;99.90;;;;;;5031846;28;20172;-52
2021/12/17 08:06:36;;;;;;;11.70;7.53;;;6.30;99.90;;;;;;5031633;28;20183;-52
2021/12/17 08:09:04;;;;;;;12.27;8.40;;;6.30;99.90;;;;;;5031866;28;20262;-49
2021/12/17 08:11:31;;;;;;;9.33;6.77;;;6.10;99.90;;;;;;5031642;28;20601;-51
2021/12/17 08:13:58;;;;;;;10.90;7.43;;;6.00;99.90;;;;;;5031851;28;20178;-50
2021/12/17 08:24:19;;;;;;;11.23;7.90;;;5.70;99.90;;;;;;5031837;28;20533;-52
2021/12/17 08:31:57;;;;;;;11.10;8.07;;;6.00;99.90;;;;;;5031455;28;20202;-49
2021/12/17 08:34:23;;;;;;;10.97;7.70;;;6.00;99.90;;;;;;5031566;28;20653;-49
2021/12/17 08:36:49;;;;;;;12.33;8.60;;;6.00;99.90;;;;;;5031188;28;20172;-50
2021/12/17 08:39:15;;;;;;;14.70;9.60;;;6.10;99.90;;;;;;5031530;28;20172;-47
2021/12/17 08:41:41;;;;;;;16.27;11.77;;;6.20;99.90;;;;;;5031222;28;20215;-52
2021/12/17 08:44:08;;;;;;;19.97;13.90;;;6.40;99.90;;;;;;5031684;28;20174;-53
2021/12/17 08:46:34;;;;;;;14.27;8.90;;;6.60;99.90;;;;;;5031085;28;20179;-51
2021/12/17 08:49:00;;;;;;;26.47;15.97;;;6.60;99.90;;;;;;5031521;28;20168;-49
2021/12/17 08:51:26;;;;;;;28.37;15.33;;;6.60;99.90;;;;;;5030900;28;20208;-50
2021/12/17 08:53:51;;;;;;;12.43;8.07;;;6.60;99.90;;;;;;5030941;28;20242;-53
2021/12/17 08:56:22;;;;;;;12.87;8.67;;;6.50;99.90;;;;;;5030651;28;20215;-54
2021/12/17 08:58:50;;;;;;;10.67;7.87;;;6.40;99.90;;;;;;5030615;28;20179;-51
2021/12/17 09:01:15;;;;;;;12.83;8.53;;;6.50;99.90;;;;;;5030642;28;20298;-58
2021/12/17 09:03:41;;;;;;;18.20;10.60;;;6.50;99.90;;;;;;5031017;28;20211;-56
2021/12/17 09:06:07;;;;;;;37.63;22.30;;;6.50;99.90;;;;;;5085487;22;20229;-59
2021/12/17 09:08:32;;;;;;;15.03;9.83;;;6.50;99.90;;;;;;5002551;28;20527;-57
2021/12/17 09:10:58;;;;;;;86.17;46.60;;;7.00;99.90;;;;;;5007745;28;20220;-51
2021/12/17 09:13:25;;;;;;;17.57;10.73;;;6.40;99.90;;;;;;5010760;28;20699;-48
2021/12/17 09:15:54;;;;;;;55.67;31.20;;;6.20;99.90;;;;;;5004075;28;20204;-54
2021/12/17 09:18:20;;;;;;;14.93;10.17;;;6.00;99.90;;;;;;5022161;28;20164;-51
2021/12/17 09:20:45;;;;;;;14.00;10.00;;;5.80;99.90;;;;;;5023493;28;20249;-53
2021/12/17 09:23:11;;;;;;;16.80;10.47;;;5.50;99.90;;;;;;5020215;28;20550;-53
2021/12/17 09:25:37;;;;;;;65.10;37.33;;;5.30;99.90;;;;;;5022428;28;20194;-52
2021/12/17 09:28:04;;;;;;;33.87;20.63;;;5.30;99.90;;;;;;5022140;28;20242;-52
2021/12/17 09:30:30;;;;;;;20.17;14.10;;;5.30;99.90;;;;;;5005184;28;20179;-52
2021/12/17 09:32:56;;;;;;;19.37;13.17;;;5.40;99.90;;;;;;5023306;28;20179;-48
2021/12/17 09:35:22;;;;;;;19.63;12.87;;;5.60;99.90;;;;;;5003666;28;20204;-48
2021/12/17 09:37:48;;;;;;;16.00;10.60;;;5.70;99.90;;;;;;5022634;28;20176;-52
2021/12/17 09:40:14;;;;;;;17.40;11.77;;;5.70;99.90;;;;;;5021162;28;20258;-48
2021/12/17 09:42:42;;;;;;;14.93;10.57;;;5.60;99.90;;;;;;5018169;28;20259;-52
2021/12/17 09:45:08;;;;;;;14.60;9.37;;;5.60;99.90;;;;;;4996888;28;20184;-49
2021/12/17 09:47:34;;;;;;;14.40;10.30;;;5.50;99.90;;;;;;5014380;28;20207;-47
2021/12/17 09:50:00;;;;;;;33.50;19.80;;;5.50;99.90;;;;;;5014324;28;20591;-48
2021/12/17 09:52:26;;;;;;;18.20;11.63;;;5.50;99.90;;;;;;5014090;28;20219;-50
2021/12/17 09:54:53;;;;;;;268.77;134.50;;;5.60;99.90;;;;;;5013462;28;20196;-50
2021/12/17 09:57:20;;;;;;;18.50;11.63;;;5.70;99.90;;;;;;5013452;28;20172;-48
2021/12/17 09:59:46;;;;;;;17.03;10.33;;;5.80;99.90;;;;;;5013611;28;20161;-51
2021/12/17 10:02:12;;;;;;;38.57;21.57;;;5.70;99.90;;;;;;5013512;28;20223;-48
2021/12/17 10:04:42;;;;;;;63.43;38.60;;;5.70;99.90;;;;;;5017712;28;20196;-51
2021/12/17 10:07:19;;;;;;;16.00;9.90;;;5.90;99.90;;;;;;5019933;28;20169;-48
2021/12/17 10:10:03;;;;;;;18.90;11.93;;;6.00;99.90;;;;;;5022279;28;20307;-51
2021/12/17 10:12:35;;;;;;;18.30;11.43;;;6.00;99.90;;;;;;5019984;28;20715;-49
2021/12/17 10:15:16;;;;;;;18.03;11.57;;;6.10;99.90;;;;;;5019782;28;20196;-53
2021/12/17 10:18:01;;;;;;;18.23;11.93;;;6.20;99.90;;;;;;4986544;28;20264;-48
2021/12/17 10:20:29;;;;;;;15.87;10.30;;;6.40;99.90;;;;;;5018518;28;20188;-53
2021/12/17 10:23:04;;;;;;;16.23;9.63;;;6.60;99.90;;;;;;5022617;28;20172;-53
2021/12/17 10:25:33;;;;;;;16.07;10.33;;;6.80;99.90;;;;;;5019568;28;20555;-48
2021/12/17 10:28:01;;;;;;;15.40;10.10;;;7.00;99.90;;;;;;4987459;28;20171;-50
2021/12/17 10:30:28;;;;;;;15.60;10.30;;;7.10;99.90;;;;;;5019601;28;20173;-48
2021/12/17 10:32:56;;;;;;;17.77;10.90;;;7.10;99.90;;;;;;5022975;28;20230;-52
2021/12/17 10:35:24;;;;;;;15.00;10.60;;;7.20;99.90;;;;;;5022841;28;20681;-51
2021/12/17 10:37:56;;;;;;;15.17;9.60;;;7.30;99.90;;;;;;5022531;28;20179;-52
2021/12/17 10:40:35;;;;;;;15.70;10.60;;;7.30;99.90;;;;;;5021372;28;20286;-49
2021/12/17 10:43:15;;;;;;;15.23;9.97;;;7.30;99.90;;;;;;5021817;28;20222;-50
2021/12/17 10:45:47;;;;;;;17.10;10.63;;;7.30;99.90;;;;;;5021052;28;20231;-49
2021/12/17 10:48:31;;;;;;;16.10;10.53;;;8.20;99.90;;;;;;5024502;28;20211;-50
2021/12/17 10:51:03;;;;;;;17.57;10.30;;;7.40;99.90;;;;;;5032812;28;20199;-52
2021/12/17 10:53:29;;;;;;;17.40;11.23;;;7.20;99.90;;;;;;5032847;28;20179;-50
2021/12/17 10:55:55;;;;;;;19.40;11.60;;;7.20;99.90;;;;;;5032519;28;20195;-49
2021/12/17 10:58:22;;;;;;;15.97;10.60;;;7.10;99.90;;;;;;5032466;28;20585;-53
2021/12/17 11:01:05;;;;;;;19.43;11.60;;;7.20;99.90;;;;;;5032672;28;20355;-54
2021/12/17 11:03:42;;;;;;;16.47;11.10;;;7.10;99.90;;;;;;5029246;28;20168;-50
2021/12/17 11:06:08;;;;;;;16.87;11.27;;;6.90;99.90;;;;;;5021052;28;20257;-50
2021/12/17 11:08:37;;;;;;;19.73;11.87;;;6.80;99.90;;;;;;5023175;28;20549;-53
2021/12/17 11:11:10;;;;;;;20.57;12.60;;;6.80;99.90;;;;;;5022398;28;20203;-50
2021/12/17 11:13:51;;;;;;;17.93;11.53;;;6.90;99.90;;;;;;5019050;28;20267;-52
2021/12/17 11:16:18;;;;;;;19.73;12.97;;;7.00;99.90;;;;;;5018510;28;20238;-51
2021/12/17 11:18:44;;;;;;;18.37;11.83;;;7.10;99.90;;;;;;5021986;28;20175;-49
2021/12/17 11:21:09;;;;;;;21.70;13.00;;;7.00;99.90;;;;;;5020662;28;20257;-48
2021/12/17 11:23:35;;;;;;;18.77;12.87;;;6.90;99.90;;;;;;5024727;28;20168;-52
2021/12/17 11:26:01;;;;;;;21.10;13.67;;;6.70;99.90;;;;;;5021539;28;20202;-52
2021/12/17 11:28:27;;;;;;;20.60;12.83;;;6.60;99.90;;;;;;5022733;28;20214;-49
2021/12/17 11:30:53;;;;;;;21.97;15.20;;;6.60;99.90;;;;;;5020556;28;20207;-52
2021/12/17 11:33:19;;;;;;;21.77;13.97;;;6.70;99.90;;;;;;5022239;28;20175;-49
2021/12/17 11:35:46;;;;;;;20.30;13.60;;;6.60;99.90;;;;;;5022060;28;20816;-50
2021/12/17 11:38:14;;;;;;;18.77;12.57;;;6.50;99.90;;;;;;5020388;28;20176;-53
2021/12/17 11:40:54;;;;;;;17.10;12.50;;;6.50;99.90;;;;;;5021809;28;20202;-56
2021/12/17 11:43:36;;;;;;;20.63;13.67;;;6.60;99.90;;;;;;5019082;28;20172;-52
2021/12/17 11:46:10;;;;;;;21.20;12.87;;;6.70;99.90;;;;;;5031258;28;20184;-49
2021/12/17 11:48:36;;;;;;;20.27;13.67;;;6.80;99.90;;;;;;5031843;28;20302;-50
2021/12/17 11:51:05;;;;;;;19.53;13.40;;;7.00;99.90;;;;;;5031488;28;20258;-50
2021/12/17 11:53:32;;;;;;;20.47;13.00;;;7.10;99.90;;;;;;5031783;28;20178;-50
2021/12/17 11:56:03;;;;;;;21.47;13.67;;;7.20;99.90;;;;;;5031109;28;20263;-54
2021/12/17 11:58:53;;;;;;;17.63;12.10;;;7.10;99.90;;;;;;5031803;28;20252;-50
2021/12/17 12:01:57;;;;;;;18.93;12.67;;;6.90;99.90;;;;;;5031497;28;20669;-49
2021/12/17 12:04:34;;;;;;;19.10;12.90;;;6.70;99.90;;;;;;5031688;28;20168;-49
2021/12/17 12:07:32;;;;;;;17.57;12.63;;;6.60;99.90;;;;;;5031297;28;20168;-51
2021/12/17 12:10:21;;;;;;;18.17;12.47;;;6.60;99.90;;;;;;5031589;28;20188;-57
2021/12/17 12:12:46;;;;;;;20.67;14.03;;;6.70;99.90;;;;;;5031435;28;20214;-53
2021/12/17 12:15:22;;;;;;;21.93;13.33;;;6.90;99.90;;;;;;5031121;28;20660;-52
2021/12/17 12:18:03;;;;;;;18.37;13.30;;;7.00;99.90;;;;;;5031610;28;20190;-50
2021/12/17 12:20:50;;;;;;;20.37;14.03;;;7.00;99.90;;;;;;5031432;28;20191;-53
2021/12/17 12:23:32;;;;;;;18.47;13.23;;;7.10;99.90;;;;;;5031474;28;20591;-57
2021/12/17 12:28:45;;;;;;;18.10;12.53;;;7.00;99.90;;;;;;5031547;28;20172;-49
2021/12/17 12:31:12;;;;;;;17.10;12.40;;;7.10;99.90;;;;;;5031195;28;20203;-52
2021/12/17 12:34:04;;;;;;;17.53;13.07;;;7.10;99.90;;;;;;5031580;28;20250;-51
2021/12/17 12:36:56;;;;;;;17.90;13.07;;;7.00;99.90;;;;;;5030876;28;20188;-51
2021/12/17 12:39:34;;;;;;;17.47;12.37;;;7.20;99.90;;;;;;5031487;28;20175;-49
2021/12/17 12:42:02;;;;;;;75.47;49.57;;;7.30;99.90;;;;;;5030903;28;20203;-54
2021/12/17 12:44:43;;;;;;;31.20;21.93;;;7.30;99.90;;;;;;5034764;28;20529;-51
2021/12/17 12:47:20;;;;;;;18.93;14.27;;;7.30;99.90;;;;;;5035063;28;20168;-53
2021/12/17 12:49:50;;;;;;;17.33;12.60;;;7.30;99.90;;;;;;5035365;28;20168;-49
2021/12/17 12:52:26;;;;;;;17.27;13.07;;;7.40;99.90;;;;;;5035071;28;20210;-49
2021/12/17 12:54:55;;;;;;;19.03;13.30;;;7.40;99.90;;;;;;5034813;28;20668;-53
2021/12/17 12:57:45;;;;;;;16.00;11.40;;;7.30;99.90;;;;;;5035063;28;20602;-49
2021/12/17 13:00:18;;;;;;;18.63;14.77;;;7.10;99.90;;;;;;5034782;28;20180;-49
2021/12/17 13:02:46;;;;;;;16.33;12.27;;;7.00;99.90;;;;;;5035203;28;20182;-55
2021/12/17 13:05:12;;;;;;;16.60;11.93;;;7.10;99.90;;;;;;5034331;28;20772;-50
2021/12/17 13:07:48;;;;;;;17.33;13.27;;;7.10;99.90;;;;;;5024965;28;20244;-49
2021/12/17 13:10:34;;;;;;;16.13;12.67;;;7.20;99.90;;;;;;5004339;28;20200;-55
2021/12/17 13:13:22;;;;;;;15.67;11.57;;;7.30;99.90;;;;;;5005416;28;20181;-49
2021/12/17 13:21:33;;;;;;;15.93;11.77;;;7.40;99.90;;;;;;5004764;28;20593;-51
2021/12/17 13:24:16;;;;;;;14.27;11.30;;;7.40;99.90;;;;;;5003688;28;20169;-50
2021/12/17 13:26:48;;;;;;;14.73;11.67;;;7.40;99.90;;;;;;5005115;28;20173;-53
2021/12/17 13:29:15;;;;;;;14.70;11.50;;;7.20;99.90;;;;;;5014302;28;20642;-51
2021/12/17 13:31:43;;;;;;;15.73;11.33;;;7.00;99.90;;;;;;5014567;28;20299;-56
2021/12/17 13:34:14;;;;;;;15.87;12.07;;;6.80;99.90;;;;;;5014149;28;20172;-54
2021/12/17 13:37:10;;;;;;;14.23;11.20;;;6.80;99.90;;;;;;5014200;28;20173;-49
2021/12/17 13:39:44;;;;;;;15.80;11.33;;;6.70;99.90;;;;;;5006898;28;20673;-51
2021/12/17 13:42:23;;;;;;;16.40;12.63;;;6.60;99.90;;;;;;5014149;28;20200;-52
2021/12/17 13:44:51;;;;;;;16.60;12.27;;;6.70;99.90;;;;;;5013980;28;20277;-49
2021/12/17 13:47:24;;;;;;;17.17;13.27;;;6.70;99.90;;;;;;5014259;28;20544;-51
2021/12/17 13:49:53;;;;;;;14.87;11.60;;;6.70;99.90;;;;;;5014222;28;20223;-49
2021/12/17 13:52:22;;;;;;;16.47;12.13;;;6.70;99.90;;;;;;5013762;28;20259;-54
2021/12/17 13:54:48;;;;;;;19.43;13.60;;;6.80;99.90;;;;;;5013701;28;20198;-55
2021/12/17 13:57:18;;;;;;;17.67;13.30;;;6.90;99.90;;;;;;5013927;28;20191;-50
2021/12/17 13:59:46;;;;;;;14.40;11.93;;;6.80;99.90;;;;;;5014271;28;20243;-51
2021/12/17 14:02:18;;;;;;;16.53;12.30;;;6.60;99.90;;;;;;5013557;28;20239;-56
2021/12/17 14:05:00;;;;;;;16.90;12.60;;;6.20;99.90;;;;;;5013419;28;20298;-54
2021/12/17 14:07:29;;;;;;;16.37;12.40;;;5.90;99.90;;;;;;5014049;28;20165;-53
2021/12/17 14:10:14;;;;;;;17.83;13.20;;;5.80;99.90;;;;;;5013778;28;20173;-56
2021/12/17 14:12:42;;;;;;;18.47;13.87;;;6.00;99.90;;;;;;5013556;28;20171;-54
2021/12/17 14:15:20;;;;;;;18.30;13.57;;;6.20;99.90;;;;;;5013133;28;20247;-50
2021/12/17 14:17:49;;;;;;;18.73;13.20;;;6.30;99.90;;;;;;5013690;28;20705;-54
2021/12/17 14:20:17;;;;;;;18.57;13.40;;;6.50;99.90;;;;;;5013319;28;20219;-54
2021/12/17 14:22:45;;;;;;;18.17;13.03;;;6.50;99.90;;;;;;5013303;28;20621;-51
2021/12/17 14:25:35;;;;;;;19.37;14.30;;;6.60;99.90;;;;;;5013026;28;20223;-51
2021/12/17 14:28:07;;;;;;;16.47;12.57;;;6.70;99.90;;;;;;5013656;28;20600;-50
2021/12/17 14:30:33;;;;;;;18.90;13.93;;;6.80;99.90;;;;;;4995985;28;20244;-53
2021/12/17 14:33:09;;;;;;;20.37;14.40;;;6.70;99.90;;;;;;5013192;28;20165;-52
2021/12/17 14:35:53;;;;;;;19.10;13.57;;;6.80;99.90;;;;;;5013043;28;20189;-52
2021/12/17 14:38:34;;;;;;;18.97;14.73;;;6.80;99.90;;;;;;4995707;28;20184;-51
2021/12/17 14:41:01;;;;;;;19.70;13.77;;;6.80;99.90;;;;;;5013336;28;20207;-53
2021/12/17 14:44:11;;;;;;;18.20;13.57;;;6.90;99.90;;;;;;5013039;28;20172;-50
2021/12/17 14:46:48;;;;;;;17.60;12.57;;;6.90;99.90;;;;;;5012786;28;20198;-49
2021/12/17 15:03:20;;;;;;;21.10;14.77;;;5.60;99.90;;;;;;4933253;29;20600;-51
2021/12/17 15:05:44;;;;;;;18.37;13.10;;;5.30;99.90;;;;;;4931190;29;20230;-49
2021/12/17 15:08:09;;;;;;;18.53;13.13;;;5.00;99.90;;;;;;4933070;29;20202;-53
2021/12/17 15:10:35;;;;;;;18.40;13.53;;;4.80;99.90;;;;;;4932042;29;20194;-55
2021/12/17 15:13:02;;;;;;;17.90;13.50;;;4.70;99.90;;;;;;4932855;29;20781;-54
2021/12/17 15:15:30;;;;;;;17.27;12.60;;;4.70;99.90;;;;;;4932729;29;20219;-49
2021/12/17 15:17:57;;;;;;;19.47;13.63;;;4.80;99.90;;;;;;4932838;29;20565;-52
2021/12/17 15:20:28;;;;;;;18.80;13.20;;;4.70;99.90;;;;;;4932838;29;20215;-53
2021/12/17 15:22:56;;;;;;;19.30;13.27;;;4.70;99.90;;;;;;4932891;29;20685;-53
2021/12/17 15:25:24;;;;;;;17.37;13.47;;;4.80;99.90;;;;;;4932595;29;20203;-54
2021/12/17 15:27:50;;;;;;;17.70;13.30;;;4.80;99.90;;;;;;4932662;29;20179;-50
2021/12/17 15:30:25;;;;;;;18.67;13.37;;;4.90;99.90;;;;;;4932579;29;20205;-50
2021/12/17 15:32:51;;;;;;;20.20;12.30;;;5.00;99.90;;;;;;4932840;29;20277;-51
2021/12/17 15:35:22;;;;;;;17.00;12.27;;;5.20;99.90;;;;;;5000255;28;20204;-48
2021/12/17 15:37:49;;;;;;;17.73;13.27;;;5.40;99.90;;;;;;5012486;28;20180;-49
2021/12/17 15:40:16;;;;;;;16.20;12.40;;;5.60;99.90;;;;;;5012046;28;20667;-49
2021/12/17 15:42:42;;;;;;;20.37;13.37;;;5.70;99.90;;;;;;5012237;28;20250;-51
2021/12/17 15:45:08;;;;;;;17.87;13.17;;;5.80;99.90;;;;;;5012023;28;20220;-49
2021/12/17 15:47:34;;;;;;;23.50;13.90;;;5.90;99.90;;;;;;5012122;28;20173;-49
2021/12/17 15:50:00;;;;;;;18.80;12.87;;;6.00;99.90;;;;;;5014310;28;20254;-52
2021/12/17 15:52:27;;;;;;;18.73;13.63;;;5.90;99.90;;;;;;5022406;28;20211;-49
2021/12/17 15:54:53;;;;;;;17.70;13.27;;;5.80;99.90;;;;;;5021397;28;20196;-51
2021/12/17 15:57:19;;;;;;;19.53;13.93;;;5.80;99.90;;;;;;5020595;28;20178;-53
2021/12/17 15:59:45;;;;;;;17.50;13.50;;;5.70;99.90;;;;;;5016364;28;20324;-47
2021/12/17 16:02:12;;;;;;;18.13;13.43;;;5.30;99.90;;;;;;5013831;28;20207;-51
2021/12/17 16:04:41;;;;;;;18.50;12.90;;;5.00;99.90;;;;;;5020193;28;20283;-55
2021/12/17 16:07:07;;;;;;;18.70;13.97;;;4.80;99.90;;;;;;5018373;28;20168;-50
2021/12/17 16:12:07;;;;;;;18.80;13.30;;;4.90;99.90;;;;;;5022891;28;20214;-54